createdAt,value
2023-03-16T00:00:09.610Z,0.30
2023-03-16T00:02:35.992Z,0.29
2023-03-16T00:05:02.366Z,0.30
2023-03-16T00:07:29.136Z,0.31
2023-03-16T00:09:55.519Z,0.31
2023-03-16T00:12:22.638Z,0.30
2023-03-16T00:14:49.531Z,0.31
2023-03-16T00:17:20.003Z,0.31
2023-03-16T00:19:48.248Z,0.36
2023-03-16T00:22:17.526Z,0.39
2023-03-16T00:24:43.933Z,0.33
2023-03-16T00:27:14.671Z,0.28
2023-03-16T00:29:47.138Z,0.29
2023-03-16T00:32:19.068Z,0.31
2023-03-16T00:34:47.024Z,0.32
2023-03-16T00:37:16.672Z,0.29
2023-03-16T00:39:44.541Z,0.35
2023-03-16T00:42:12.095Z,0.28
2023-03-16T00:44:38.938Z,0.28
2023-03-16T00:47:06.459Z,0.29
2023-03-16T00:49:34.818Z,0.29
2023-03-16T00:52:05.400Z,0.34
2023-03-16T00:54:35.162Z,0.30
2023-03-16T00:57:02.500Z,0.31
2023-03-16T00:59:30.422Z,0.26
2023-03-16T01:01:56.845Z,0.20
2023-03-16T01:04:23.214Z,0.24
2023-03-16T01:06:49.779Z,0.24
2023-03-16T01:09:16.162Z,0.19
2023-03-16T01:11:43.114Z,0.17
2023-03-16T01:14:10.629Z,0.13
2023-03-16T01:16:37.550Z,0.10
2023-03-16T01:19:04.252Z,0.15
2023-03-16T01:21:32.449Z,0.11
2023-03-16T01:23:58.956Z,0.08
2023-03-16T01:26:25.394Z,0.05
2023-03-16T01:28:51.818Z,0.05
2023-03-16T01:31:18.355Z,-0.01
2023-03-16T01:33:44.809Z,0.02
2023-03-16T01:36:14.194Z,-0.02
2023-03-16T01:38:41.312Z,-0.04
2023-03-16T01:41:08.484Z,-0.02
2023-03-16T01:43:37.531Z,-0.01
2023-03-16T01:46:07.078Z,-0.03
2023-03-16T01:48:42.454Z,-0.03
2023-03-16T01:51:21.111Z,-0.04
2023-03-16T01:53:53.034Z,-0.09
2023-03-16T01:56:25.652Z,-0.09
2023-03-16T01:58:58.639Z,-0.14
2023-03-16T02:01:27.303Z,-0.17
2023-03-16T02:04:06.510Z,-0.18
2023-03-16T02:06:34.464Z,-0.21
2023-03-16T02:09:01.524Z,-0.26
2023-03-16T02:11:28.344Z,-0.21
2023-03-16T02:13:59.535Z,-0.25
2023-03-16T02:16:26.512Z,-0.30
2023-03-16T02:18:53.345Z,-0.34
2023-03-16T02:21:33.160Z,-0.35
2023-03-16T02:24:03.130Z,-0.34
2023-03-16T02:26:36.994Z,-0.33
2023-03-16T02:29:18.185Z,-0.30
2023-03-16T02:31:44.743Z,-0.38
2023-03-16T02:34:13.149Z,-0.40
2023-03-16T02:36:41.688Z,-0.46
2023-03-16T02:39:08.137Z,-0.50
2023-03-16T02:41:34.724Z,-0.53
2023-03-16T02:44:14.585Z,-0.53
2023-03-16T02:46:43.311Z,-0.55
2023-03-16T02:49:24.967Z,-0.56
2023-03-16T02:51:51.991Z,-0.54
2023-03-16T02:54:18.954Z,-0.54
2023-03-16T02:56:45.729Z,-0.59
2023-03-16T02:59:12.177Z,-0.58
2023-03-16T03:01:38.710Z,-0.67
2023-03-16T03:04:06.179Z,-0.72
2023-03-16T03:06:33.159Z,-0.75
2023-03-16T03:09:00.438Z,-0.76
2023-03-16T03:11:26.845Z,-0.83
2023-03-16T03:13:54.516Z,-0.89
2023-03-16T03:16:21.276Z,-0.94
2023-03-16T03:18:48.419Z,-0.99
2023-03-16T03:21:15.037Z,-1.10
2023-03-16T03:23:41.375Z,-1.14
2023-03-16T03:26:08.044Z,-1.16
2023-03-16T03:28:34.440Z,-1.20
2023-03-16T03:31:01.692Z,-1.23
2023-03-16T03:33:28.377Z,-1.21
2023-03-16T03:35:59.463Z,-1.29
2023-03-16T03:38:26.295Z,-1.28
2023-03-16T03:40:53.971Z,-1.34
2023-03-16T03:43:21.080Z,-1.35
2023-03-16T03:45:47.762Z,-1.42
2023-03-16T03:48:14.149Z,-1.39
2023-03-16T03:50:40.805Z,-1.43
2023-03-16T03:53:07.753Z,-1.44
2023-03-16T03:55:34.129Z,-1.50
2023-03-16T03:58:00.873Z,-1.53
2023-03-16T04:00:27.413Z,-1.52
2023-03-16T04:02:53.994Z,-1.62
2023-03-16T04:05:20.449Z,-1.56
2023-03-16T04:07:46.813Z,-1.57
2023-03-16T04:10:13.204Z,-1.58
2023-03-16T04:12:39.655Z,-1.60
2023-03-16T04:15:06.347Z,-1.58
2023-03-16T04:17:34.338Z,-1.59
2023-03-16T04:20:02.087Z,-1.67
2023-03-16T04:22:31.043Z,-1.72
2023-03-16T04:24:57.398Z,-1.73
2023-03-16T04:27:23.894Z,-1.70
2023-03-16T04:29:50.255Z,-1.70
2023-03-16T04:32:16.627Z,-1.76
2023-03-16T04:34:43.764Z,-1.72
2023-03-16T04:37:10.238Z,-1.83
2023-03-16T04:39:36.650Z,-1.83
2023-03-16T04:42:03.057Z,-1.83
2023-03-16T04:44:29.475Z,-1.83
2023-03-16T04:46:55.839Z,-1.88
2023-03-16T04:49:22.181Z,-1.87
2023-03-16T04:51:48.552Z,-1.88
2023-03-16T04:54:15.384Z,-1.90
2023-03-16T04:56:41.833Z,-1.89
2023-03-16T04:59:08.278Z,-1.95
2023-03-16T05:01:34.674Z,-1.96
2023-03-16T05:04:02.390Z,-2.01
2023-03-16T05:06:29.352Z,-2.05
2023-03-16T05:08:55.715Z,-2.04
2023-03-16T05:11:22.055Z,-2.02
2023-03-16T05:13:48.404Z,-1.98
2023-03-16T05:16:14.827Z,-1.91
2023-03-16T05:18:41.611Z,-1.87
2023-03-16T05:21:08.122Z,-1.61
2023-03-16T05:23:34.538Z,-1.76
2023-03-16T05:26:01.004Z,-1.86
2023-03-16T05:28:27.958Z,-1.81
2023-03-16T05:30:54.782Z,-1.86
2023-03-16T05:33:21.576Z,-1.90
2023-03-16T05:35:48.170Z,-1.87
2023-03-16T05:38:15.782Z,-1.87
2023-03-16T05:40:42.320Z,-1.84
2023-03-16T05:43:08.812Z,-1.78
2023-03-16T05:45:35.201Z,-1.83
2023-03-16T05:48:01.574Z,-1.80
2023-03-16T05:50:28.575Z,-1.77
2023-03-16T05:52:55.031Z,-1.76
2023-03-16T05:55:21.403Z,-1.76
2023-03-16T05:57:47.830Z,-1.73
2023-03-16T06:00:16.205Z,-1.67
2023-03-16T06:02:43.554Z,-1.69
2023-03-16T06:05:10.192Z,-1.64
2023-03-16T06:07:36.720Z,-1.68
2023-03-16T06:10:04.744Z,-1.39
2023-03-16T06:12:31.140Z,-1.43
2023-03-16T06:14:57.500Z,-1.43
2023-03-16T06:17:23.893Z,-1.50
2023-03-16T06:19:50.241Z,-1.47
2023-03-16T06:22:18.049Z,-1.48
2023-03-16T06:24:44.777Z,-1.43
2023-03-16T06:27:11.494Z,-1.39
2023-03-16T06:29:37.961Z,-1.35
2023-03-16T06:32:04.712Z,-1.32
2023-03-16T06:34:32.156Z,-1.25
2023-03-16T06:36:58.518Z,-1.23
2023-03-16T06:39:26.308Z,-1.16
2023-03-16T06:41:53.349Z,-1.08
2023-03-16T06:44:19.696Z,-1.08
2023-03-16T06:46:46.043Z,-1.05
2023-03-16T06:49:12.403Z,-0.95
2023-03-16T06:51:38.767Z,-0.93
2023-03-16T06:54:05.117Z,-0.89
2023-03-16T06:56:31.862Z,-0.84
2023-03-16T06:58:58.280Z,-0.76
2023-03-16T07:01:24.957Z,-0.73
2023-03-16T07:03:51.398Z,-0.66
2023-03-16T07:06:18.184Z,-0.65
2023-03-16T07:08:44.903Z,-0.59
2023-03-16T07:11:11.326Z,-0.56
2023-03-16T07:13:38.146Z,-0.46
2023-03-16T07:16:04.957Z,-0.38
2023-03-16T07:18:31.696Z,-0.35
2023-03-16T07:20:58.302Z,-0.32
2023-03-16T07:23:25.092Z,-0.30
2023-03-16T07:25:52.633Z,-0.26
2023-03-16T07:28:20.041Z,-0.16
2023-03-16T07:31:02.631Z,0.04
2023-03-16T07:33:32.177Z,0.08
2023-03-16T07:35:59.031Z,0.11
2023-03-16T07:38:25.442Z,0.15
2023-03-16T07:40:52.262Z,0.18
2023-03-16T07:43:18.617Z,0.23
2023-03-16T07:45:49.987Z,0.29
2023-03-16T07:48:17.023Z,0.35
2023-03-16T07:50:43.676Z,0.44
2023-03-16T07:53:10.294Z,0.53
2023-03-16T07:55:38.297Z,0.54
2023-03-16T07:58:06.087Z,0.62
2023-03-16T08:00:33.626Z,0.75
2023-03-16T08:03:00.534Z,0.80
2023-03-16T08:05:27.895Z,0.82
2023-03-16T08:07:56.040Z,0.82
2023-03-16T08:10:23.165Z,0.85
2023-03-16T08:12:49.655Z,0.89
2023-03-16T08:15:16.429Z,0.94
2023-03-16T08:17:42.855Z,0.98
2023-03-16T08:20:12.862Z,1.03
2023-03-16T08:22:39.410Z,1.14
2023-03-16T08:25:10.304Z,1.21
2023-03-16T08:27:38.119Z,1.25
2023-03-16T08:30:07.416Z,1.27
2023-03-16T08:32:34.037Z,1.37
2023-03-16T08:35:00.547Z,1.48
2023-03-16T08:37:27.445Z,1.47
2023-03-16T08:39:54.251Z,1.56
2023-03-16T08:42:21.004Z,1.60
2023-03-16T08:44:47.787Z,1.67
2023-03-16T08:47:14.949Z,1.71
2023-03-16T08:49:41.403Z,1.78
2023-03-16T08:52:10.182Z,1.85
2023-03-16T08:54:37.130Z,1.92
2023-03-16T08:57:03.541Z,2.00
2023-03-16T08:59:30.777Z,2.07
2023-03-16T09:01:57.687Z,2.15
2023-03-16T09:04:24.320Z,2.17
2023-03-16T09:07:09.868Z,2.22
2023-03-16T09:09:37.073Z,2.31
2023-03-16T09:12:04.419Z,2.37
2023-03-16T09:14:30.967Z,2.37
2023-03-16T09:16:57.397Z,2.44
2023-03-16T09:19:24.979Z,2.45
2023-03-16T09:21:51.377Z,2.56
2023-03-16T09:24:17.806Z,2.62
2023-03-16T09:26:44.230Z,2.76
2023-03-16T09:29:10.610Z,2.88
2023-03-16T09:31:37.493Z,2.89
2023-03-16T09:34:04.824Z,2.97
2023-03-16T09:36:31.175Z,3.02
2023-03-16T09:38:57.572Z,3.07
2023-03-16T09:41:42.721Z,3.10
2023-03-16T09:44:31.404Z,3.16
2023-03-16T09:47:01.442Z,3.45
2023-03-16T09:49:36.162Z,3.45
2023-03-16T09:52:30.161Z,3.48
2023-03-16T09:55:04.213Z,3.52
2023-03-16T09:57:36.876Z,3.60
2023-03-16T10:00:19.970Z,3.64
2023-03-16T10:03:05.092Z,3.63
2023-03-16T10:05:32.958Z,3.64
2023-03-16T10:08:22.213Z,3.69
2023-03-16T10:11:25.926Z,3.76
2023-03-16T10:14:11.145Z,3.78
2023-03-16T10:16:43.563Z,3.79
2023-03-16T10:19:42.610Z,3.86
2023-03-16T10:22:26.406Z,3.94
2023-03-16T10:25:14.938Z,3.98
2023-03-16T10:27:44.769Z,4.08
2023-03-16T10:30:28.623Z,4.15
2023-03-16T10:32:57.536Z,4.20
2023-03-16T10:35:46.971Z,4.29
2023-03-16T10:38:30.589Z,4.47
2023-03-16T10:41:00.707Z,4.56
2023-03-16T10:43:29.091Z,4.51
2023-03-16T10:46:00.389Z,4.64
2023-03-16T10:48:28.322Z,4.67
2023-03-16T10:50:57.482Z,4.71
2023-03-16T10:53:28.811Z,4.77
2023-03-16T10:56:11.986Z,4.83
2023-03-16T10:58:42.477Z,4.81
2023-03-16T11:01:18.741Z,4.83
2023-03-16T11:03:51.242Z,4.90
2023-03-16T11:06:22.812Z,4.94
2023-03-16T11:08:49.230Z,4.90
2023-03-16T11:11:29.385Z,4.84
2023-03-16T11:14:03.235Z,4.74
2023-03-16T11:16:39.202Z,4.68
2023-03-16T11:19:27.150Z,4.84
2023-03-16T11:22:01.397Z,4.85
2023-03-16T11:24:42.197Z,4.87
2023-03-16T11:27:21.341Z,4.94
2023-03-16T11:30:25.316Z,4.89
2023-03-16T11:32:54.136Z,5.11
2023-03-16T11:35:29.196Z,5.20
2023-03-16T11:38:17.577Z,5.39
2023-03-16T11:40:48.973Z,5.39
2023-03-16T11:43:51.692Z,5.39
2023-03-16T11:46:23.907Z,5.46
2023-03-16T11:49:07.004Z,5.50
2023-03-16T11:51:47.713Z,5.36
2023-03-16T11:54:17.392Z,5.47
2023-03-16T11:56:47.737Z,5.53
2023-03-16T11:59:38.146Z,5.44
2023-03-16T12:02:32.383Z,5.56
2023-03-16T12:05:14.498Z,5.59
2023-03-16T12:07:49.749Z,5.51
2023-03-16T12:10:31.089Z,5.48
2023-03-16T12:13:30.612Z,5.45
2023-03-16T12:16:05.675Z,5.59
2023-03-16T12:18:49.562Z,5.92
2023-03-16T12:21:40.829Z,5.95
2023-03-16T12:24:15.961Z,5.93
2023-03-16T12:26:43.294Z,5.80
2023-03-16T12:29:24.508Z,5.83
2023-03-16T12:31:58.024Z,5.83
2023-03-16T12:34:34.458Z,5.86
2023-03-16T12:37:14.167Z,5.86
2023-03-16T12:40:15.643Z,6.01
2023-03-16T12:42:50.646Z,5.97
2023-03-16T12:45:39.202Z,6.05
2023-03-16T12:48:19.714Z,6.00
2023-03-16T12:50:55.747Z,6.20
2023-03-16T12:53:40.493Z,6.11
2023-03-16T12:56:09.989Z,6.20
2023-03-16T12:58:40.206Z,6.25
2023-03-16T13:01:10.164Z,6.26
2023-03-16T13:03:37.186Z,6.27
2023-03-16T13:06:04.066Z,6.32
2023-03-16T13:08:42.593Z,6.37
2023-03-16T13:11:12.110Z,6.33
2023-03-16T13:14:00.464Z,6.51
2023-03-16T13:16:33.310Z,6.51
2023-03-16T13:18:59.794Z,6.51
2023-03-16T13:21:26.102Z,6.43
2023-03-16T13:23:58.507Z,6.46
2023-03-16T13:26:47.424Z,6.55
2023-03-16T13:29:27.350Z,6.51
2023-03-16T13:31:56.663Z,6.70
2023-03-16T13:34:29.591Z,6.68
2023-03-16T13:36:57.694Z,6.80
2023-03-16T13:39:30.187Z,6.76
2023-03-16T13:42:08.373Z,6.88
2023-03-16T13:44:39.259Z,7.13
2023-03-16T13:47:06.001Z,7.06
2023-03-16T13:49:32.327Z,7.10
2023-03-16T13:51:58.922Z,7.25
2023-03-16T13:54:30.373Z,7.32
2023-03-16T13:56:59.609Z,7.43
2023-03-16T13:59:26.342Z,7.37
2023-03-16T14:01:58.452Z,7.43
2023-03-16T14:04:29.149Z,7.53
2023-03-16T14:07:01.848Z,7.60
2023-03-16T14:09:31.857Z,7.69
2023-03-16T14:11:58.261Z,7.78
2023-03-16T14:14:50.107Z,7.63
2023-03-16T14:17:19.737Z,7.72
2023-03-16T14:19:56.630Z,7.86
2023-03-16T14:22:29.275Z,7.98
2023-03-16T14:25:00.575Z,8.08
2023-03-16T14:28:00.878Z,8.20
2023-03-16T14:30:30.197Z,8.20
2023-03-16T14:33:24.803Z,8.21
2023-03-16T14:35:56.025Z,8.27
2023-03-16T14:38:35.171Z,8.34
2023-03-16T14:41:05.012Z,8.55
2023-03-16T14:43:35.669Z,8.50
2023-03-16T14:46:07.506Z,8.42
2023-03-16T14:48:35.588Z,8.55
2023-03-16T14:51:03.295Z,8.56
2023-03-16T14:53:30.750Z,8.59
2023-03-16T14:55:58.628Z,8.73
2023-03-16T14:58:25.698Z,8.76
2023-03-16T15:00:53.790Z,9.06
2023-03-16T15:03:23.692Z,8.92
2023-03-16T15:05:51.596Z,9.03
2023-03-16T15:08:22.264Z,9.28
2023-03-16T15:10:49.514Z,9.24
2023-03-16T15:13:34.777Z,9.25
2023-03-16T15:16:04.247Z,9.19
2023-03-16T15:18:31.276Z,9.32
2023-03-16T15:20:57.668Z,9.42
2023-03-16T15:23:24.013Z,9.45
2023-03-16T15:25:52.620Z,9.48
2023-03-16T15:28:21.418Z,9.30
2023-03-16T15:30:52.540Z,9.45
2023-03-16T15:33:18.895Z,9.53
2023-03-16T15:35:47.580Z,9.53
2023-03-16T15:38:16.715Z,9.46
2023-03-16T15:40:44.058Z,9.41
2023-03-16T15:43:12.506Z,9.53
2023-03-16T15:45:38.892Z,9.61
2023-03-16T15:48:05.690Z,9.46
2023-03-16T15:50:32.926Z,9.46
2023-03-16T15:53:30.921Z,9.33
2023-03-16T15:56:03.190Z,9.50
2023-03-16T15:58:31.501Z,9.43
2023-03-16T16:01:00.025Z,9.24
2023-03-16T16:03:27.631Z,9.07
2023-03-16T16:05:54.762Z,8.83
2023-03-16T16:08:21.457Z,8.85
2023-03-16T16:10:50.177Z,8.96
2023-03-16T16:13:23.359Z,9.03
2023-03-16T16:15:51.848Z,8.90
2023-03-16T16:18:35.030Z,8.64
2023-03-16T16:21:03.478Z,8.46
2023-03-16T16:23:32.366Z,8.19
2023-03-16T16:26:02.712Z,8.03
2023-03-16T16:28:31.707Z,7.84
2023-03-16T16:30:59.822Z,7.61
2023-03-16T16:33:32.088Z,7.43
2023-03-16T16:36:01.564Z,7.28
2023-03-16T16:38:28.597Z,7.14
2023-03-16T16:40:58.462Z,7.01
2023-03-16T16:43:33.958Z,6.87
2023-03-16T16:46:02.034Z,6.72
2023-03-16T16:48:37.308Z,6.67
2023-03-16T16:51:07.162Z,6.54
2023-03-16T16:53:33.620Z,6.41
2023-03-16T16:56:00.376Z,6.37
2023-03-16T16:58:27.117Z,6.28
2023-03-16T17:00:56.504Z,6.17
2023-03-16T17:03:27.004Z,6.21
2023-03-16T17:05:55.209Z,6.09
2023-03-16T17:08:23.131Z,6.03
2023-03-16T17:10:49.708Z,5.93
2023-03-16T17:13:29.785Z,5.84
2023-03-16T17:15:56.186Z,5.77
2023-03-16T17:18:22.529Z,5.79
2023-03-16T17:20:50.563Z,5.78
2023-03-16T17:23:33.176Z,5.66
2023-03-16T17:26:06.543Z,5.61
2023-03-16T17:28:38.664Z,5.55
2023-03-16T17:31:05.580Z,5.54
2023-03-16T17:33:31.975Z,5.56
2023-03-16T17:35:58.375Z,5.55
2023-03-16T17:38:25.190Z,5.51
2023-03-16T17:40:52.890Z,5.51
2023-03-16T17:43:22.109Z,5.46
2023-03-16T17:45:51.643Z,5.39
2023-03-16T17:48:20.890Z,5.35
2023-03-16T17:50:48.348Z,5.31
2023-03-16T17:53:16.526Z,5.24
2023-03-16T17:55:44.627Z,5.22
2023-03-16T17:58:30.280Z,5.15
2023-03-16T18:00:57.293Z,5.17
2023-03-16T18:03:26.923Z,5.09
2023-03-16T18:05:54.452Z,5.05
2023-03-16T18:08:29.466Z,5.01
2023-03-16T18:11:02.249Z,4.99
2023-03-16T18:13:34.630Z,4.98
2023-03-16T18:16:02.873Z,5.03
2023-03-16T18:18:32.705Z,5.00
2023-03-16T18:21:00.477Z,4.99
2023-03-16T18:23:30.298Z,4.99
2023-03-16T18:26:03.248Z,4.96
2023-03-16T18:28:30.774Z,4.92
2023-03-16T18:30:58.230Z,4.93
2023-03-16T18:33:32.544Z,4.95
2023-03-16T18:36:13.345Z,4.94
2023-03-16T18:38:44.452Z,5.02
2023-03-16T18:41:22.763Z,5.16
2023-03-16T18:43:50.965Z,5.05
2023-03-16T18:46:27.346Z,5.00
2023-03-16T18:48:59.772Z,4.96
2023-03-16T18:51:26.630Z,4.93
2023-03-16T18:53:53.439Z,4.90
2023-03-16T18:56:26.875Z,4.89
2023-03-16T18:58:54.911Z,4.88
2023-03-16T19:01:32.337Z,4.90
2023-03-16T19:04:00.806Z,4.88
2023-03-16T19:06:32.953Z,4.96
2023-03-16T19:09:03.870Z,4.97
2023-03-16T19:11:30.385Z,4.89
2023-03-16T19:13:56.932Z,4.92
2023-03-16T19:16:23.378Z,4.88
2023-03-16T19:18:50.214Z,4.95
2023-03-16T19:21:19.515Z,4.86
2023-03-16T19:23:56.950Z,4.90
2023-03-16T19:26:24.051Z,4.88
2023-03-16T19:28:50.986Z,4.84
2023-03-16T19:31:22.239Z,4.79
2023-03-16T19:33:49.173Z,4.80
2023-03-16T19:36:19.590Z,4.75
2023-03-16T19:38:50.225Z,4.75
2023-03-16T19:41:26.977Z,4.70
2023-03-16T19:43:55.542Z,4.66
2023-03-16T19:46:22.311Z,4.66
2023-03-16T19:48:48.817Z,4.68
2023-03-16T19:51:17.466Z,4.59
2023-03-16T19:53:44.483Z,4.55
2023-03-16T19:56:19.952Z,4.55
2023-03-16T19:58:49.467Z,4.47
2023-03-16T20:01:19.046Z,4.44
2023-03-16T20:03:47.632Z,4.39
2023-03-16T20:06:20.473Z,4.37
2023-03-16T20:08:48.213Z,4.34
2023-03-16T20:11:24.504Z,4.32
2023-03-16T20:13:51.713Z,4.31
2023-03-16T20:16:24.149Z,4.31
2023-03-16T20:18:54.420Z,4.30
2023-03-16T20:21:21.111Z,4.31
2023-03-16T20:23:47.614Z,4.42
2023-03-16T20:26:27.365Z,4.34
2023-03-16T20:28:53.816Z,4.37
2023-03-16T20:31:26.563Z,4.33
2023-03-16T20:33:53.774Z,4.29
2023-03-16T20:36:22.140Z,4.28
2023-03-16T20:38:48.916Z,4.30
2023-03-16T20:41:32.712Z,4.28
2023-03-16T20:44:01.244Z,4.26
2023-03-16T20:46:32.718Z,4.22
2023-03-16T20:49:00.654Z,4.21
2023-03-16T20:51:28.640Z,4.20
2023-03-16T20:53:55.424Z,4.20
2023-03-16T20:56:24.118Z,4.20
2023-03-16T20:58:54.525Z,4.16
2023-03-16T21:01:21.650Z,4.14
2023-03-16T21:03:51.953Z,4.09
2023-03-16T21:06:23.467Z,4.12
2023-03-16T21:08:52.045Z,4.12
2023-03-16T21:11:30.345Z,4.20
2023-03-16T21:13:56.730Z,4.19
2023-03-16T21:16:23.400Z,4.13
2023-03-16T21:18:49.806Z,4.06
2023-03-16T21:21:18.191Z,4.06
2023-03-16T21:23:45.086Z,4.05
2023-03-16T21:26:16.540Z,4.06
2023-03-16T21:28:43.843Z,4.07
2023-03-16T21:31:19.571Z,4.08
2023-03-16T21:33:46.078Z,4.08
2023-03-16T21:36:16.021Z,4.07
2023-03-16T21:38:42.885Z,3.98
2023-03-16T21:41:09.384Z,3.97
2023-03-16T21:43:36.202Z,3.98
2023-03-16T21:46:03.709Z,3.95
2023-03-16T21:48:36.611Z,4.02
2023-03-16T21:51:03.514Z,4.00
2023-03-16T21:53:34.295Z,3.92
2023-03-16T21:56:01.766Z,3.92
2023-03-16T21:58:28.170Z,3.88
2023-03-16T22:00:55.456Z,3.89
2023-03-16T22:03:49.792Z,3.90
2023-03-16T22:06:17.132Z,3.87
2023-03-16T22:08:43.930Z,3.86
2023-03-16T22:11:17.007Z,3.88
2023-03-16T22:13:43.346Z,3.86
2023-03-16T22:16:16.132Z,3.83
2023-03-16T22:18:45.221Z,3.83
2023-03-16T22:21:38.025Z,3.78
2023-03-16T22:24:07.296Z,3.76
2023-03-16T22:26:33.889Z,3.78
2023-03-16T22:29:01.797Z,3.77
2023-03-16T22:31:38.637Z,3.81
2023-03-16T22:34:06.220Z,3.76
2023-03-16T22:36:33.799Z,3.77
2023-03-16T22:39:05.373Z,3.79
2023-03-16T22:41:31.944Z,3.72
2023-03-16T22:43:59.581Z,3.74
2023-03-16T22:46:28.425Z,3.73
2023-03-16T22:48:56.145Z,3.71
2023-03-16T22:51:32.893Z,3.75
2023-03-16T22:54:02.471Z,3.74
2023-03-16T22:56:30.647Z,3.73
2023-03-16T22:59:04.168Z,3.73
2023-03-16T23:01:38.307Z,3.70
2023-03-16T23:04:13.577Z,3.65
2023-03-16T23:06:39.969Z,3.67
2023-03-16T23:09:06.333Z,3.72
2023-03-16T23:11:34.658Z,3.70
2023-03-16T23:14:01.468Z,3.71
2023-03-16T23:16:35.800Z,3.70
2023-03-16T23:19:04.458Z,3.70
2023-03-16T23:21:33.953Z,3.71
2023-03-16T23:24:04.387Z,3.74
2023-03-16T23:26:31.714Z,3.75
2023-03-16T23:28:58.457Z,3.68
2023-03-16T23:31:27.105Z,3.70
2023-03-16T23:33:54.042Z,3.62
2023-03-16T23:36:24.412Z,3.64
2023-03-16T23:38:51.267Z,3.71
2023-03-16T23:41:22.009Z,3.69
2023-03-16T23:43:49.124Z,3.76
2023-03-16T23:46:20.013Z,3.74
2023-03-16T23:48:48.765Z,3.71
2023-03-16T23:51:36.808Z,3.69
2023-03-16T23:54:17.715Z,3.64
2023-03-16T23:56:44.135Z,3.67
2023-03-16T23:59:10.613Z,3.65
